createdAt,value
2022-12-28T00:01:41.955Z,59.31
2022-12-28T00:04:08.706Z,59.39
2022-12-28T00:06:35.406Z,58.86
2022-12-28T00:09:02.029Z,59.21
2022-12-28T00:11:30.960Z,58.49
2022-12-28T00:13:57.936Z,58.94
2022-12-28T00:16:24.701Z,59.10
2022-12-28T00:18:51.417Z,58.29
2022-12-28T00:21:18.047Z,58.71
2022-12-28T00:23:44.676Z,59.12
2022-12-28T00:26:11.371Z,58.96
2022-12-28T00:28:38.098Z,58.81
2022-12-28T00:31:04.775Z,59.73
2022-12-28T00:33:31.479Z,59.67
2022-12-28T00:35:58.165Z,59.75
2022-12-28T00:38:24.854Z,60.28
2022-12-28T00:40:51.531Z,61.23
2022-12-28T00:43:18.183Z,60.59
2022-12-28T00:45:44.968Z,60.76
2022-12-28T00:48:11.629Z,59.86
2022-12-28T00:50:38.275Z,59.56
2022-12-28T00:53:04.941Z,59.25
2022-12-28T00:55:31.634Z,58.81
2022-12-28T00:57:58.310Z,59.85
2022-12-28T01:00:24.927Z,59.82
2022-12-28T01:02:51.646Z,60.58
2022-12-28T01:05:19.816Z,60.83
2022-12-28T01:07:46.551Z,60.45
2022-12-28T01:10:13.245Z,61.00
2022-12-28T01:12:39.950Z,60.28
2022-12-28T01:15:06.599Z,59.98
2022-12-28T01:17:33.285Z,59.31
2022-12-28T01:19:59.971Z,59.26
2022-12-28T01:22:26.694Z,58.69
2022-12-28T01:24:53.440Z,59.53
2022-12-28T01:27:20.142Z,59.06
2022-12-28T01:29:46.804Z,59.06
2022-12-28T01:32:13.538Z,58.61
2022-12-28T01:34:40.238Z,59.09
2022-12-28T01:37:06.928Z,58.38
2022-12-28T01:39:33.634Z,58.51
2022-12-28T01:42:00.290Z,58.40
2022-12-28T01:44:27.011Z,58.79
2022-12-28T01:46:53.666Z,58.82
2022-12-28T01:49:20.348Z,58.66
2022-12-28T01:51:47.053Z,59.59
2022-12-28T01:54:13.716Z,59.46
2022-12-28T01:56:40.389Z,59.24
2022-12-28T01:59:07.062Z,58.59
2022-12-28T02:01:33.788Z,59.68
2022-12-28T02:04:00.735Z,59.67
2022-12-28T02:06:27.439Z,59.03
2022-12-28T02:08:54.109Z,59.28
2022-12-28T02:11:20.765Z,58.81
2022-12-28T02:13:47.406Z,58.71
2022-12-28T02:16:14.134Z,59.26
2022-12-28T02:18:40.890Z,58.97
2022-12-28T02:21:08.345Z,59.56
2022-12-28T02:23:34.993Z,60.36
2022-12-28T02:26:01.637Z,59.14
2022-12-28T02:28:28.265Z,59.53
2022-12-28T02:30:55.066Z,59.94
2022-12-28T02:33:21.790Z,60.22
2022-12-28T02:35:48.496Z,59.41
2022-12-28T02:38:15.193Z,59.23
2022-12-28T02:40:41.827Z,60.01
2022-12-28T02:43:08.522Z,61.17
2022-12-28T02:45:35.204Z,60.64
2022-12-28T02:48:01.839Z,59.87
2022-12-28T02:50:28.566Z,59.67
2022-12-28T02:52:55.209Z,60.10
2022-12-28T02:55:21.868Z,59.89
2022-12-28T02:57:48.570Z,60.11
2022-12-28T03:00:15.293Z,59.95
2022-12-28T03:02:42.066Z,60.64
2022-12-28T03:05:08.788Z,61.24
2022-12-28T03:07:35.399Z,60.55
2022-12-28T03:10:02.116Z,61.04
2022-12-28T03:12:28.800Z,60.51
2022-12-28T03:14:55.479Z,60.88
2022-12-28T03:17:22.141Z,61.87
2022-12-28T03:19:48.785Z,61.95
2022-12-28T03:22:15.444Z,60.97
2022-12-28T03:24:42.097Z,62.01
2022-12-28T03:27:09.372Z,61.07
2022-12-28T03:29:36.157Z,60.62
2022-12-28T03:32:02.995Z,60.22
2022-12-28T03:34:29.617Z,60.76
2022-12-28T03:36:56.249Z,60.81
2022-12-28T03:39:22.965Z,61.31
2022-12-28T03:41:49.617Z,60.47
2022-12-28T03:44:16.262Z,60.83
2022-12-28T03:46:42.981Z,61.28
2022-12-28T03:49:09.700Z,61.53
2022-12-28T03:51:36.376Z,61.27
2022-12-28T03:54:03.022Z,60.78
2022-12-28T03:56:29.721Z,60.88
2022-12-28T03:58:56.367Z,61.24
2022-12-28T04:01:23.187Z,61.31
2022-12-28T04:03:49.957Z,61.41
2022-12-28T04:06:16.640Z,61.63
2022-12-28T04:08:43.378Z,61.68
2022-12-28T04:11:09.993Z,61.93
2022-12-28T04:13:36.670Z,61.67
2022-12-28T04:16:03.345Z,61.26
2022-12-28T04:18:30.084Z,61.44
2022-12-28T04:20:56.818Z,61.52
2022-12-28T04:23:23.445Z,61.09
2022-12-28T04:25:50.146Z,61.51
2022-12-28T04:28:16.853Z,61.73
2022-12-28T04:30:43.522Z,61.51
2022-12-28T04:33:10.144Z,61.17
2022-12-28T04:35:36.805Z,60.29
2022-12-28T04:38:03.460Z,60.36
2022-12-28T04:40:30.181Z,60.54
2022-12-28T04:42:56.871Z,62.31
2022-12-28T04:45:23.504Z,61.85
2022-12-28T04:47:50.311Z,61.84
2022-12-28T04:50:17.171Z,61.94
2022-12-28T04:52:44.007Z,62.58
2022-12-28T04:55:32.740Z,62.18
2022-12-28T04:57:57.298Z,62.17
2022-12-28T05:00:24.043Z,61.48
2022-12-28T05:02:50.780Z,61.36
2022-12-28T05:05:17.426Z,61.66
2022-12-28T05:07:44.651Z,60.38
2022-12-28T05:10:11.328Z,61.24
2022-12-28T05:12:37.972Z,61.69
2022-12-28T05:15:04.610Z,61.15
2022-12-28T05:17:31.264Z,60.44
2022-12-28T05:19:57.969Z,60.83
2022-12-28T05:22:24.619Z,61.12
2022-12-28T05:24:51.314Z,62.69
2022-12-28T05:27:17.971Z,63.17
2022-12-28T05:29:44.621Z,62.75
2022-12-28T05:32:11.327Z,62.43
2022-12-28T05:34:40.089Z,61.78
2022-12-28T05:37:06.775Z,62.25
2022-12-28T05:39:33.632Z,61.73
2022-12-28T05:42:00.324Z,61.75
2022-12-28T05:44:27.006Z,61.68
2022-12-28T05:46:53.703Z,61.67
2022-12-28T05:49:20.507Z,61.65
2022-12-28T05:51:47.389Z,61.06
2022-12-28T05:54:14.001Z,60.89
2022-12-28T05:56:40.683Z,61.33
2022-12-28T05:59:07.296Z,60.63
2022-12-28T06:01:34.015Z,61.22
2022-12-28T06:04:00.743Z,61.58
2022-12-28T06:06:27.377Z,61.11
2022-12-28T06:08:54.200Z,62.28
2022-12-28T06:11:20.876Z,61.84
2022-12-28T06:13:47.544Z,61.90
2022-12-28T06:16:14.206Z,61.67
2022-12-28T06:18:40.932Z,61.70
2022-12-28T06:21:07.621Z,61.72
2022-12-28T06:23:34.320Z,62.02
2022-12-28T06:26:00.974Z,62.33
2022-12-28T06:28:27.653Z,61.73
2022-12-28T06:30:54.333Z,62.49
2022-12-28T06:33:21.037Z,62.42
2022-12-28T06:35:47.751Z,61.79
2022-12-28T06:38:14.406Z,62.21
2022-12-28T06:41:11.673Z,62.23
2022-12-28T06:43:27.658Z,61.40
2022-12-28T06:45:54.331Z,61.33
2022-12-28T06:48:21.076Z,62.01
2022-12-28T06:50:47.705Z,62.20
2022-12-28T06:53:14.386Z,62.37
2022-12-28T06:55:40.999Z,62.25
2022-12-28T06:58:07.660Z,62.00
2022-12-28T07:00:34.413Z,61.53
2022-12-28T07:03:01.135Z,62.43
2022-12-28T07:05:27.895Z,62.35
2022-12-28T07:07:54.760Z,61.64
2022-12-28T07:10:21.460Z,61.91
2022-12-28T07:12:48.092Z,61.21
2022-12-28T07:15:14.789Z,62.15
2022-12-28T07:17:41.412Z,61.06
2022-12-28T07:20:08.054Z,61.80
2022-12-28T07:22:34.723Z,61.85
2022-12-28T07:25:01.426Z,61.47
2022-12-28T07:27:28.108Z,62.42
2022-12-28T07:29:54.736Z,62.36
2022-12-28T07:32:21.375Z,62.47
2022-12-28T07:34:48.075Z,63.18
2022-12-28T07:37:14.744Z,63.32
2022-12-28T07:39:41.463Z,63.40
2022-12-28T07:42:08.111Z,62.77
2022-12-28T07:44:38.206Z,62.04
2022-12-28T07:47:05.052Z,62.72
2022-12-28T07:49:31.741Z,63.33
2022-12-28T07:51:58.479Z,62.95
2022-12-28T07:54:25.205Z,62.33
2022-12-28T07:56:51.977Z,61.85
2022-12-28T07:59:18.716Z,61.58
2022-12-28T08:01:45.442Z,61.43
2022-12-28T08:04:12.208Z,60.98
2022-12-28T08:06:38.904Z,61.21
2022-12-28T08:09:05.625Z,61.69
2022-12-28T08:11:32.356Z,61.59
2022-12-28T08:13:59.040Z,60.41
2022-12-28T08:16:25.733Z,60.56
2022-12-28T08:18:52.403Z,60.16
2022-12-28T08:21:19.036Z,61.08
2022-12-28T08:23:45.683Z,61.02
2022-12-28T08:26:12.404Z,60.62
2022-12-28T08:28:39.062Z,60.26
2022-12-28T08:31:05.825Z,61.07
2022-12-28T08:33:32.472Z,62.44
2022-12-28T08:35:59.148Z,62.12
2022-12-28T08:38:25.780Z,61.96
2022-12-28T08:40:57.229Z,61.46
2022-12-28T08:43:24.272Z,61.15
2022-12-28T08:45:51.007Z,60.87
2022-12-28T08:48:17.724Z,60.57
2022-12-28T08:50:44.446Z,60.04
2022-12-28T08:53:11.086Z,59.21
2022-12-28T08:55:37.758Z,59.74
2022-12-28T08:58:04.384Z,58.60
2022-12-28T09:00:31.058Z,58.80
2022-12-28T09:02:57.842Z,58.40
2022-12-28T09:05:24.584Z,57.84
2022-12-28T09:07:56.167Z,57.43
2022-12-28T09:10:25.960Z,58.37
2022-12-28T09:12:52.621Z,58.56
2022-12-28T09:15:19.284Z,58.37
2022-12-28T09:17:45.969Z,57.46
2022-12-28T09:20:12.651Z,56.73
2022-12-28T09:22:39.428Z,56.17
2022-12-28T09:25:06.167Z,56.43
2022-12-28T09:27:32.902Z,55.90
2022-12-28T09:29:59.584Z,55.93
2022-12-28T09:32:26.999Z,56.04
2022-12-28T09:34:53.644Z,56.46
2022-12-28T09:37:20.325Z,55.53
2022-12-28T09:39:47.068Z,55.80
2022-12-28T09:42:13.757Z,55.04
2022-12-28T09:44:40.446Z,54.58
2022-12-28T09:47:07.167Z,54.11
2022-12-28T09:49:33.817Z,53.77
2022-12-28T09:52:00.523Z,53.80
2022-12-28T09:54:27.302Z,53.52
2022-12-28T09:56:53.953Z,53.25
2022-12-28T09:59:20.735Z,53.08
2022-12-28T10:01:47.442Z,53.47
2022-12-28T10:04:14.161Z,53.12
2022-12-28T10:06:40.847Z,52.28
2022-12-28T10:09:07.557Z,51.94
2022-12-28T10:11:36.202Z,51.48
2022-12-28T10:14:02.888Z,51.36
2022-12-28T10:16:29.632Z,51.09
2022-12-28T10:18:56.302Z,51.58
2022-12-28T10:21:28.426Z,51.24
2022-12-28T10:26:45.485Z,51.14
2022-12-28T10:29:12.180Z,50.53
2022-12-28T10:31:38.880Z,51.10
2022-12-28T10:34:05.577Z,50.63
2022-12-28T10:36:32.322Z,50.10
2022-12-28T10:38:58.970Z,50.20
2022-12-28T10:41:25.630Z,49.86
2022-12-28T10:44:21.615Z,50.39
2022-12-28T10:46:39.059Z,51.50
2022-12-28T10:49:07.735Z,49.56
2022-12-28T10:51:37.706Z,51.28
2022-12-28T10:54:04.374Z,50.90
2022-12-28T10:56:31.148Z,50.11
2022-12-28T10:58:57.937Z,49.30
2022-12-28T11:01:24.630Z,50.31
2022-12-28T11:03:51.456Z,49.90
2022-12-28T11:06:22.768Z,49.13
2022-12-28T11:08:52.851Z,47.91
2022-12-28T11:11:19.555Z,48.55
2022-12-28T11:13:46.225Z,48.02
2022-12-28T11:16:12.963Z,46.66
2022-12-28T11:18:39.661Z,48.12
2022-12-28T11:21:06.392Z,48.11
2022-12-28T11:23:33.060Z,48.80
2022-12-28T11:25:59.788Z,47.90
2022-12-28T11:28:26.500Z,46.71
2022-12-28T11:30:53.185Z,46.22
2022-12-28T11:33:20.030Z,47.06
2022-12-28T11:35:46.708Z,45.67
2022-12-28T11:38:13.424Z,45.13
2022-12-28T11:40:40.130Z,45.31
2022-12-28T11:43:06.778Z,45.17
2022-12-28T11:45:33.565Z,43.33
2022-12-28T11:48:00.299Z,44.70
2022-12-28T11:50:27.116Z,43.49
2022-12-28T11:52:53.747Z,44.48
2022-12-28T11:55:20.401Z,44.40
2022-12-28T11:57:47.182Z,44.36
2022-12-28T12:00:18.508Z,44.24
2022-12-28T12:02:48.806Z,44.16
2022-12-28T12:05:15.546Z,43.15
2022-12-28T12:07:42.238Z,44.47
2022-12-28T12:10:08.966Z,44.91
2022-12-28T12:12:35.717Z,45.29
2022-12-28T12:15:02.445Z,44.38
2022-12-28T12:17:29.176Z,43.77
2022-12-28T12:19:55.873Z,43.05
2022-12-28T12:22:22.534Z,43.01
2022-12-28T12:24:49.227Z,42.66
2022-12-28T12:27:16.032Z,43.12
2022-12-28T12:29:42.728Z,42.23
2022-12-28T12:32:09.381Z,42.59
2022-12-28T12:34:36.070Z,42.15
2022-12-28T12:37:02.735Z,42.41
2022-12-28T12:39:29.436Z,42.54
2022-12-28T12:41:56.122Z,42.92
2022-12-28T12:44:22.850Z,42.66
2022-12-28T12:46:49.474Z,43.89
2022-12-28T12:49:16.087Z,43.85
2022-12-28T12:51:42.837Z,42.30
2022-12-28T12:54:09.463Z,43.95
2022-12-28T12:56:36.117Z,42.88
2022-12-28T12:59:02.760Z,44.18
2022-12-28T13:01:29.491Z,44.80
2022-12-28T13:03:56.154Z,43.29
2022-12-28T13:06:22.827Z,42.53
2022-12-28T13:08:49.548Z,42.06
2022-12-28T13:11:16.221Z,42.39
2022-12-28T13:13:42.856Z,43.91
2022-12-28T13:16:09.637Z,42.86
2022-12-28T13:18:45.235Z,43.17
2022-12-28T13:21:13.086Z,42.41
2022-12-28T13:23:39.860Z,41.72
2022-12-28T13:26:06.546Z,41.60
2022-12-28T13:28:33.290Z,41.81
2022-12-28T13:31:00.007Z,42.28
2022-12-28T13:33:26.716Z,42.40
2022-12-28T13:35:53.368Z,42.12
2022-12-28T13:38:20.282Z,41.14
2022-12-28T13:40:46.988Z,41.77
2022-12-28T13:43:13.665Z,42.78
2022-12-28T13:45:40.304Z,42.28
2022-12-28T13:48:07.009Z,42.67
2022-12-28T13:50:33.653Z,41.71
2022-12-28T13:53:00.325Z,42.51
2022-12-28T13:55:26.973Z,42.05
2022-12-28T13:57:59.152Z,42.57
2022-12-28T14:00:26.255Z,42.42
2022-12-28T14:02:53.002Z,42.54
2022-12-28T14:05:19.693Z,41.85
2022-12-28T14:07:46.389Z,42.43
2022-12-28T14:10:13.063Z,43.72
2022-12-28T14:12:39.727Z,43.77
2022-12-28T14:15:06.420Z,43.61
2022-12-28T14:17:34.451Z,43.41
2022-12-28T14:20:01.337Z,43.54
2022-12-28T14:22:28.280Z,43.65
2022-12-28T14:24:54.911Z,43.68
2022-12-28T14:27:21.627Z,44.15
2022-12-28T14:29:48.281Z,43.90
2022-12-28T14:32:14.937Z,44.13
2022-12-28T14:34:41.578Z,44.42
2022-12-28T14:37:08.277Z,43.93
2022-12-28T14:39:35.011Z,44.67
2022-12-28T14:42:01.707Z,45.10
2022-12-28T14:44:28.348Z,45.55
2022-12-28T14:46:55.073Z,45.91
2022-12-28T14:49:21.823Z,45.69
2022-12-28T14:51:48.476Z,45.83
2022-12-28T14:54:16.199Z,46.42
2022-12-28T14:56:42.944Z,46.20
2022-12-28T14:59:09.591Z,47.28
2022-12-28T15:01:36.370Z,47.66
2022-12-28T15:04:03.095Z,48.28
2022-12-28T15:06:29.820Z,48.17
2022-12-28T15:08:56.541Z,48.58
2022-12-28T15:11:23.247Z,48.10
2022-12-28T15:13:49.885Z,48.38
2022-12-28T15:16:17.829Z,48.84
2022-12-28T15:18:44.662Z,48.88
2022-12-28T15:21:11.365Z,49.29
2022-12-28T15:23:37.988Z,49.36
2022-12-28T15:26:04.969Z,49.96
2022-12-28T15:28:31.615Z,50.23
2022-12-28T15:30:58.323Z,50.43
2022-12-28T15:33:25.030Z,50.62
2022-12-28T15:35:51.661Z,51.12
2022-12-28T15:38:18.354Z,50.80
2022-12-28T15:40:44.994Z,51.36
2022-12-28T15:43:11.639Z,51.50
2022-12-28T15:45:38.276Z,52.01
2022-12-28T15:48:04.969Z,51.86
2022-12-28T15:50:31.647Z,52.18
2022-12-28T15:52:58.321Z,51.79
2022-12-28T15:55:25.000Z,52.21
2022-12-28T15:57:51.636Z,52.72
2022-12-28T16:00:18.308Z,52.21
2022-12-28T16:02:45.087Z,52.10
2022-12-28T16:05:11.878Z,52.88
2022-12-28T16:07:38.595Z,53.25
2022-12-28T16:10:05.266Z,52.84
2022-12-28T16:12:31.974Z,53.50
2022-12-28T16:14:58.635Z,53.57
2022-12-28T16:17:25.267Z,53.29
2022-12-28T16:19:51.942Z,53.43
2022-12-28T16:22:18.600Z,53.42
2022-12-28T16:24:45.296Z,53.90
2022-12-28T16:27:11.934Z,53.81
2022-12-28T16:29:38.672Z,53.59
2022-12-28T16:32:05.422Z,54.14
2022-12-28T16:34:32.152Z,53.75
2022-12-28T16:36:58.788Z,53.97
2022-12-28T16:39:25.514Z,54.10
2022-12-28T16:41:52.147Z,55.16
2022-12-28T16:44:18.850Z,55.90
2022-12-28T16:46:45.544Z,56.34
2022-12-28T16:49:12.217Z,56.27
2022-12-28T16:51:38.886Z,56.36
2022-12-28T16:54:05.549Z,57.10
2022-12-28T16:56:32.281Z,56.14
2022-12-28T16:58:58.964Z,56.11
2022-12-28T17:01:25.804Z,55.97
2022-12-28T17:03:52.598Z,55.84
2022-12-28T17:06:19.257Z,55.59
2022-12-28T17:08:45.898Z,55.45
2022-12-28T17:11:12.613Z,56.34
2022-12-28T17:13:39.290Z,56.62
2022-12-28T17:16:06.059Z,55.96
2022-12-28T17:18:33.193Z,56.38
2022-12-28T17:21:04.883Z,56.02
2022-12-28T17:23:33.286Z,56.18
2022-12-28T17:25:59.914Z,56.78
2022-12-28T17:28:26.603Z,57.17
2022-12-28T17:30:53.269Z,57.56
2022-12-28T17:33:19.919Z,57.81
2022-12-28T17:35:46.608Z,57.58
2022-12-28T17:38:13.280Z,57.82
2022-12-28T17:40:39.954Z,57.41
2022-12-28T17:43:06.604Z,57.20
2022-12-28T17:45:33.385Z,57.99
2022-12-28T17:48:00.156Z,58.24
2022-12-28T17:50:26.840Z,58.73
2022-12-28T17:52:53.540Z,57.61
2022-12-28T17:55:20.260Z,57.33
2022-12-28T17:57:46.987Z,58.43
2022-12-28T18:00:13.613Z,58.34
2022-12-28T18:02:40.485Z,58.67
2022-12-28T18:05:07.251Z,58.12
2022-12-28T18:07:33.928Z,57.21
2022-12-28T18:10:00.651Z,57.98
2022-12-28T18:12:27.682Z,58.23
2022-12-28T18:14:54.370Z,57.62
2022-12-28T18:17:21.042Z,57.25
2022-12-28T18:19:47.736Z,58.56
2022-12-28T18:22:14.474Z,59.00
2022-12-28T18:24:41.112Z,58.89
2022-12-28T18:27:07.818Z,58.81
2022-12-28T18:29:34.480Z,59.10
2022-12-28T18:32:01.169Z,58.95
2022-12-28T18:34:27.785Z,59.16
2022-12-28T18:36:54.544Z,58.79
2022-12-28T18:39:21.249Z,58.74
2022-12-28T18:41:48.093Z,58.43
2022-12-28T18:44:14.749Z,58.75
2022-12-28T18:46:41.481Z,58.58
2022-12-28T18:49:08.195Z,58.27
2022-12-28T18:51:34.881Z,60.03
2022-12-28T18:54:01.740Z,60.50
2022-12-28T18:56:28.470Z,59.75
2022-12-28T18:58:55.198Z,59.45
2022-12-28T19:01:56.023Z,59.45
2022-12-28T19:04:08.641Z,59.35
2022-12-28T19:06:35.556Z,59.71
2022-12-28T19:09:02.369Z,59.29
2022-12-28T19:11:29.143Z,60.02
2022-12-28T19:13:55.873Z,59.83
2022-12-28T19:16:30.267Z,59.25
2022-12-28T19:18:57.646Z,59.83
2022-12-28T19:21:24.560Z,59.72
2022-12-28T19:23:59.118Z,60.48
2022-12-28T19:26:25.873Z,59.48
2022-12-28T19:28:52.604Z,60.07
2022-12-28T19:31:19.376Z,59.28
2022-12-28T19:33:46.114Z,59.58
2022-12-28T19:36:12.918Z,59.62
2022-12-28T19:38:39.850Z,59.66
2022-12-28T19:41:08.265Z,60.16
2022-12-28T19:43:34.920Z,60.00
2022-12-28T19:46:01.720Z,59.16
2022-12-28T19:48:28.580Z,58.91
2022-12-28T19:50:55.886Z,58.84
2022-12-28T19:53:22.669Z,60.20
2022-12-28T19:55:51.830Z,59.58
2022-12-28T19:58:18.877Z,59.08
2022-12-28T20:00:48.137Z,60.68
2022-12-28T20:03:15.187Z,60.44
2022-12-28T20:05:42.427Z,61.20
2022-12-28T20:08:11.937Z,60.86
2022-12-28T20:10:48.882Z,60.67
2022-12-28T20:13:22.878Z,60.41
2022-12-28T20:15:49.671Z,59.78
2022-12-28T20:18:20.731Z,61.28
2022-12-28T20:21:17.985Z,60.96
2022-12-28T20:23:35.347Z,61.43
2022-12-28T20:26:02.086Z,61.14
2022-12-28T20:28:38.326Z,60.41
2022-12-28T20:31:05.144Z,60.51
2022-12-28T20:33:32.546Z,59.90
2022-12-28T20:35:59.435Z,59.95
2022-12-28T20:38:26.218Z,60.61
2022-12-28T20:40:53.087Z,59.98
2022-12-28T20:43:19.826Z,59.35
2022-12-28T20:45:54.088Z,60.59
2022-12-28T20:48:22.780Z,61.08
2022-12-28T20:50:49.413Z,60.92
2022-12-28T20:53:16.264Z,61.15
2022-12-28T20:55:43.004Z,60.37
2022-12-28T20:58:09.780Z,61.67
2022-12-28T21:00:36.592Z,61.94
2022-12-28T21:03:03.310Z,61.13
2022-12-28T21:05:29.993Z,61.09
2022-12-28T21:07:56.661Z,60.55
2022-12-28T21:10:23.336Z,61.16
2022-12-28T21:12:49.972Z,60.88
2022-12-28T21:15:16.608Z,60.41
2022-12-28T21:17:43.219Z,60.86
2022-12-28T21:20:09.849Z,61.21
2022-12-28T21:22:36.568Z,61.89
2022-12-28T21:25:03.201Z,61.57
2022-12-28T21:27:29.883Z,60.61
2022-12-28T21:29:56.520Z,61.17
2022-12-28T21:32:23.217Z,60.79
2022-12-28T21:34:49.960Z,60.95
2022-12-28T21:37:16.635Z,60.65
2022-12-28T21:39:43.328Z,60.28
2022-12-28T21:42:09.995Z,60.24
2022-12-28T21:44:37.159Z,60.69
2022-12-28T21:47:03.827Z,60.70
2022-12-28T21:49:30.550Z,60.83
2022-12-28T21:51:57.277Z,61.08
2022-12-28T21:54:23.914Z,61.25
2022-12-28T21:56:50.601Z,60.49
2022-12-28T21:59:17.324Z,60.69
2022-12-28T22:01:44.354Z,60.24
2022-12-28T22:04:11.071Z,60.20
2022-12-28T22:06:37.716Z,60.35
2022-12-28T22:09:04.364Z,60.42
2022-12-28T22:11:31.050Z,60.55
2022-12-28T22:13:57.779Z,61.00
2022-12-28T22:16:24.513Z,60.48
2022-12-28T22:19:01.997Z,60.25
2022-12-28T22:21:29.544Z,60.90
2022-12-28T22:23:56.200Z,61.01
2022-12-28T22:26:22.832Z,60.60
2022-12-28T22:28:49.562Z,61.58
2022-12-28T22:31:16.230Z,61.04
2022-12-28T22:33:42.889Z,61.93
2022-12-28T22:36:09.648Z,61.14
2022-12-28T22:38:36.329Z,61.90
2022-12-28T22:41:02.976Z,62.39
2022-12-28T22:43:29.651Z,61.62
2022-12-28T22:45:56.377Z,61.88
2022-12-28T22:48:23.011Z,64.23
2022-12-28T22:50:49.668Z,63.58
2022-12-28T22:53:16.497Z,63.20
2022-12-28T22:55:43.126Z,63.10
2022-12-28T22:58:09.788Z,62.87
2022-12-28T23:00:36.515Z,61.91
2022-12-28T23:03:03.207Z,61.51
2022-12-28T23:05:29.899Z,62.26
2022-12-28T23:07:56.575Z,62.52
2022-12-28T23:10:23.207Z,62.25
2022-12-28T23:12:49.868Z,61.12
2022-12-28T23:15:16.561Z,61.07
2022-12-28T23:17:43.295Z,60.87
2022-12-28T23:20:09.985Z,62.39
2022-12-28T23:22:36.699Z,61.78
2022-12-28T23:25:03.315Z,61.04
2022-12-28T23:27:30.039Z,61.18
2022-12-28T23:29:56.769Z,63.21
2022-12-28T23:32:23.437Z,63.07
2022-12-28T23:34:50.137Z,62.59
2022-12-28T23:37:16.809Z,61.96
2022-12-28T23:39:43.507Z,62.63
2022-12-28T23:42:10.174Z,62.27
2022-12-28T23:44:36.826Z,62.20
2022-12-28T23:47:03.588Z,62.25
2022-12-28T23:49:30.248Z,61.55
2022-12-28T23:51:56.935Z,61.82
2022-12-28T23:54:23.639Z,62.03
2022-12-28T23:56:50.257Z,61.86
2022-12-28T23:59:16.938Z,62.19
